^^
Your Local Weather - Clay, NY Station Historical Data
Daily Summary for June 21, 2017 Units:  English    Metric   Both
« Previous Day
Next Day »
Daily Weekly Monthly Yearly Custom
  High: Low: Average:
Temperature: 73.1 °F 54.6 °F 63.8 °F
Dew Point: 59.0 °F 47.9 °F 54.8 °F
Humidity: 94% 46% 74%
Wind Speed: 4.0mph 0.0mph 1mph
Wind Gust: 9.0mph - -
Wind- - WNW
Pressure: 29.93 in 29.83 in -
Precipitation: 0.03 in    
Historical Graphs
 
 
Tabular Data for June 21, 2017
Time Temperature Dew Point Pressure Wind Wind Speed Wind Gust Humidity Rainfall Rate (Hourly) solar
00:00 57.6 °F 55.0 °F 29.85 in Calm     91% 0.00 in 0 W/m2
00:06 57.4 °F 55.1 °F 29.85 in Calm     92% 0.00 in 0 W/m2
00:12 57.4 °F 55.1 °F 29.84 in Calm     92% 0.00 in 0 W/m2
00:18 57.3 °F 55.0 °F 29.84 in Calm     92% 0.00 in 0 W/m2
00:24 57.2 °F 54.9 °F 29.84 in Calm     92% 0.00 in 0 W/m2
00:30 57.3 °F 55.0 °F 29.84 in Calm     92% 0.00 in 0 W/m2
00:36 57.4 °F 55.1 °F 29.83 in Calm     92% 0.00 in 0 W/m2
00:42 57.6 °F 55.3 °F 29.83 in Calm     92% 0.00 in 0 W/m2
00:48 57.7 °F 55.4 °F 29.83 in Calm     92% 0.00 in 0 W/m2
00:54 58.1 °F 56.1 °F 29.85 in NW 1.0 mph 4.0 mph 93% 0.00 in 0 W/m2
01:00 58.6 °F 56.6 °F 29.85 in NNW 1.0 mph 1.0 mph 93% 0.00 in 0 W/m2
01:06 59.1 °F 56.8 °F 29.85 in NNW 1.0 mph 2.0 mph 92% 0.00 in 0 W/m2
01:12 59.6 °F 57.3 °F 29.85 in Calm   1.0 mph 92% 0.00 in 0 W/m2
01:18 59.9 °F 57.3 °F 29.86 in Calm   1.0 mph 91% 0.00 in 0 W/m2
01:24 60.2 °F 56.9 °F 29.88 in Calm     89% 0.00 in 0 W/m2
01:30 60.5 °F 56.9 °F 29.88 in NNW 1.0 mph 2.0 mph 88% 0.00 in 0 W/m2
01:36 60.7 °F 56.8 °F 29.88 in NNW 1.0 mph 3.0 mph 87% 0.00 in 0 W/m2
01:42 60.7 °F 56.5 °F 29.87 in NW 1.0 mph 1.0 mph 86% 0.00 in 0 W/m2
01:48 60.4 °F 56.5 °F 29.87 in NW 1.0 mph 1.0 mph 87% 0.00 in 0 W/m2
01:54 60.2 °F 56.3 °F 29.87 in Calm   1.0 mph 87% 0.07 in 0 W/m2
02:00 60.0 °F 56.4 °F 29.87 in Calm     88% 0.08 in 0 W/m2
02:06 59.8 °F 56.6 °F 29.87 in Calm     89% 0.06 in 0 W/m2
02:12 59.6 °F 56.4 °F 29.86 in Calm     89% 0.04 in 0 W/m2
02:18 59.3 °F 56.4 °F 29.86 in Calm   1.0 mph 90% 0.00 in 0 W/m2
02:24 59.2 °F 56.3 °F 29.85 in Calm     90% 0.00 in 0 W/m2
02:30 59.1 °F 56.5 °F 29.85 in NW 1.0 mph 2.0 mph 91% 0.00 in 0 W/m2
02:36 59.0 °F 56.4 °F 29.84 in NW 1.0 mph 2.0 mph 91% 0.00 in 0 W/m2
02:42 58.8 °F 56.2 °F 29.84 in NW 1.0 mph 2.0 mph 91% 0.00 in 0 W/m2
02:48 58.8 °F 56.2 °F 29.84 in NW 1.0 mph 2.0 mph 91% 0.00 in 0 W/m2
02:54 58.7 °F 56.1 °F 29.85 in NW 1.0 mph 2.0 mph 91% 0.00 in 0 W/m2
03:00 58.7 °F 56.4 °F 29.84 in NW 1.0 mph 1.0 mph 92% 0.00 in 0 W/m2
03:08 58.6 °F 56.3 °F 29.84 in Calm   1.0 mph 92% 0.00 in 0 W/m2
03:14 58.6 °F 56.3 °F 29.85 in Calm   2.0 mph 92% 0.00 in 0 W/m2
03:20 58.6 °F 56.3 °F 29.85 in Calm     92% 0.00 in 0 W/m2
03:26 58.5 °F 56.2 °F 29.85 in Calm   1.0 mph 92% 0.00 in 0 W/m2
03:32 58.5 °F 56.2 °F 29.85 in Calm     92% 0.00 in 0 W/m2
03:38 58.4 °F 56.1 °F 29.85 in Calm     92% 0.00 in 0 W/m2
03:44 58.3 °F 56.0 °F 29.84 in Calm     92% 0.00 in 0 W/m2
03:50 58.2 °F 55.9 °F 29.84 in Calm     92% 0.00 in 0 W/m2
03:56 58.2 °F 55.9 °F 29.84 in Calm     92% 0.00 in 0 W/m2
04:02 58.0 °F 55.7 °F 29.85 in Calm     92% 0.00 in 0 W/m2
04:08 57.9 °F 55.6 °F 29.85 in Calm     92% 0.00 in 0 W/m2
04:14 57.7 °F 55.4 °F 29.85 in Calm     92% 0.00 in 0 W/m2
04:20 57.5 °F 55.2 °F 29.85 in Calm     92% 0.00 in 0 W/m2
04:26 57.3 °F 55.0 °F 29.84 in Calm     92% 0.00 in 0 W/m2
04:32 57.1 °F 54.8 °F 29.84 in Calm     92% 0.00 in 0 W/m2
04:38 57.0 °F 54.7 °F 29.84 in Calm     92% 0.00 in 0 W/m2
04:44 56.8 °F 54.5 °F 29.84 in Calm     92% 0.00 in 0 W/m2
04:50 56.6 °F 54.3 °F 29.84 in Calm     92% 0.00 in 0 W/m2
04:56 56.4 °F 54.1 °F 29.85 in Calm     92% 0.00 in 0 W/m2
05:02 56.2 °F 53.9 °F 29.84 in Calm     92% 0.00 in 0 W/m2
05:08 56.0 °F 53.7 °F 29.85 in Calm     92% 0.00 in 0 W/m2
05:14 55.7 °F 53.4 °F 29.85 in Calm     92% 0.00 in 0 W/m2
05:20 55.5 °F 53.2 °F 29.85 in Calm     92% 0.00 in 0 W/m2
05:26 55.4 °F 53.1 °F 29.85 in Calm     92% 0.00 in 0 W/m2
05:32 55.1 °F 52.8 °F 29.85 in Calm     92% 0.00 in 5 W/m2
05:38 55.0 °F 52.7 °F 29.85 in Calm     92% 0.00 in 7 W/m2
05:44 54.7 °F 52.4 °F 29.85 in Calm     92% 0.00 in 9 W/m2
05:50 54.6 °F 52.3 °F 29.86 in Calm     92% 0.00 in 11 W/m2
05:56 54.6 °F 52.6 °F 29.86 in Calm     93% 0.00 in 14 W/m2
06:02 54.6 °F 52.6 °F 29.86 in Calm     93% 0.00 in 16 W/m2
06:08 54.7 °F 52.7 °F 29.87 in Calm     93% 0.00 in 19 W/m2
06:14 54.9 °F 52.9 °F 29.87 in Calm     93% 0.00 in 23 W/m2
06:20 55.3 °F 53.3 °F 29.87 in Calm     93% 0.00 in 30 W/m2
06:26 55.7 °F 53.7 °F 29.87 in Calm     93% 0.00 in 93 W/m2
06:32 56.7 °F 55.0 °F 29.87 in Calm   1.0 mph 94% 0.00 in 128 W/m2
06:38 57.3 °F 55.6 °F 29.87 in WNW 1.0 mph 3.0 mph 94% 0.00 in 142 W/m2
06:44 57.8 °F 56.1 °F 29.87 in WNW 1.0 mph 1.0 mph 94% 0.00 in 156 W/m2
06:50 58.2 °F 56.2 °F 29.87 in WNW 1.0 mph 1.0 mph 93% 0.00 in 169 W/m2
06:56 58.9 °F 57.2 °F 29.87 in Calm   1.0 mph 94% 0.00 in 186 W/m2
07:02 59.1 °F 57.1 °F 29.87 in WSW 1.0 mph 1.0 mph 93% 0.00 in 204 W/m2
07:08 59.5 °F 57.5 °F 29.88 in SW 1.0 mph 3.0 mph 93% 0.00 in 221 W/m2
07:14 60.0 °F 58.0 °F 29.88 in SW 1.0 mph 1.0 mph 93% 0.00 in 234 W/m2
07:20 60.4 °F 57.8 °F 29.88 in WSW 1.0 mph 1.0 mph 91% 0.00 in 253 W/m2
07:26 60.7 °F 57.7 °F 29.88 in WSW 2.0 mph 3.0 mph 90% 0.00 in 271 W/m2
07:32 61.2 °F 57.6 °F 29.88 in SW 2.0 mph 2.0 mph 88% 0.00 in 297 W/m2
07:38 61.6 °F 57.7 °F 29.88 in WSW 2.0 mph 2.0 mph 87% 0.00 in 325 W/m2
07:44 62.2 °F 58.3 °F 29.88 in SW 1.0 mph 2.0 mph 87% 0.00 in 334 W/m2
07:50 62.6 °F 58.4 °F 29.88 in SW 1.0 mph 1.0 mph 86% 0.00 in 353 W/m2
07:56 62.7 °F 57.5 °F 29.88 in WSW 2.0 mph 5.0 mph 83% 0.00 in 373 W/m2
08:02 63.1 °F 57.9 °F 29.88 in SSW 2.0 mph 2.0 mph 83% 0.00 in 397 W/m2
08:08 63.3 °F 58.0 °F 29.89 in West 1.0 mph 4.0 mph 83% 0.00 in 418 W/m2
08:14 63.4 °F 57.5 °F 29.89 in NNW 1.0 mph 2.0 mph 81% 0.00 in 418 W/m2
08:22 63.5 °F 57.6 °F 29.89 in SW 2.0 mph 2.0 mph 81% 0.00 in 462 W/m2
08:28 64.1 °F 58.1 °F 29.89 in West 1.0 mph 2.0 mph 81% 0.00 in 480 W/m2
08:34 64.7 °F 57.7 °F 29.89 in NW 1.0 mph 1.0 mph 78% 0.00 in 517 W/m2
08:40 65.1 °F 58.4 °F 29.89 in WNW 1.0 mph 1.0 mph 79% 0.00 in 555 W/m2
08:46 65.0 °F 57.6 °F 29.89 in Calm   1.0 mph 77% 0.00 in 573 W/m2
08:52 65.2 °F 57.4 °F 29.89 in WSW 1.0 mph 4.0 mph 76% 0.00 in 522 W/m2
08:58 65.2 °F 57.8 °F 29.89 in NW 1.0 mph 4.0 mph 77% 0.00 in 577 W/m2
09:04 65.4 °F 57.3 °F 29.90 in West 1.0 mph 2.0 mph 75% 0.00 in 158 W/m2
09:10 65.4 °F 56.1 °F 29.90 in NW 2.0 mph 5.0 mph 72% 0.00 in 647 W/m2
09:16 65.8 °F 57.7 °F 29.89 in WNW 3.0 mph 5.0 mph 75% 0.00 in 731 W/m2
09:22 65.8 °F 57.3 °F 29.89 in West 2.0 mph 2.0 mph 74% 0.00 in 214 W/m2
09:28 66.1 °F 57.6 °F 29.89 in NW 1.0 mph 4.0 mph 74% 0.00 in 745 W/m2
09:34 66.3 °F 57.4 °F 29.89 in WSW 1.0 mph 3.0 mph 73% 0.00 in 782 W/m2
09:40 66.5 °F 56.8 °F 29.89 in NNW 2.0 mph 2.0 mph 71% 0.00 in 742 W/m2
09:46 67.0 °F 57.3 °F 29.89 in WNW 2.0 mph 2.0 mph 71% 0.00 in 858 W/m2
09:52 67.1 °F 56.6 °F 29.89 in WSW 1.0 mph 2.0 mph 69% 0.00 in 174 W/m2
09:58 66.9 °F 56.0 °F 29.89 in NNW 1.0 mph 4.0 mph 68% 0.00 in 777 W/m2
10:04 67.4 °F 56.5 °F 29.89 in NW 2.0 mph 6.0 mph 68% 0.00 in 863 W/m2
10:10 67.2 °F 55.0 °F 29.89 in West 2.0 mph 2.0 mph 65% 0.00 in 174 W/m2
10:16 67.4 °F 56.1 °F 29.89 in WSW 2.0 mph 2.0 mph 67% 0.00 in 875 W/m2
10:22 67.4 °F 56.9 °F 29.89 in WSW 2.0 mph 5.0 mph 69% 0.00 in 861 W/m2
10:28 67.9 °F 56.1 °F 29.89 in WNW 2.0 mph 7.0 mph 66% 0.00 in 907 W/m2
10:34 67.7 °F 54.2 °F 29.89 in SW 3.0 mph 9.0 mph 62% 0.00 in 937 W/m2
10:40 66.7 °F 55.0 °F 29.89 in WNW 3.0 mph 3.0 mph 66% 0.00 in 297 W/m2
10:46 66.7 °F 54.6 °F 29.89 in SW 2.0 mph 6.0 mph 65% 0.00 in 225 W/m2
10:52 67.5 °F 56.6 °F 29.89 in WSW 3.0 mph 6.0 mph 68% 0.00 in 991 W/m2
10:58 68.0 °F 56.2 °F 29.89 in West 2.0 mph 6.0 mph 66% 0.00 in 981 W/m2
11:04 68.6 °F 55.1 °F 29.89 in WSW 2.0 mph 6.0 mph 62% 0.00 in 1025 W/m2
11:10 68.5 °F 54.5 °F 29.89 in NW 2.0 mph 2.0 mph 61% 0.00 in 306 W/m2
11:16 67.6 °F 55.0 °F 29.89 in West 1.0 mph 2.0 mph 64% 0.00 in 156 W/m2
11:22 69.3 °F 56.6 °F 29.89 in West 1.0 mph 4.0 mph 64% 0.00 in 983 W/m2
11:28 69.4 °F 56.3 °F 29.89 in West 2.0 mph 6.0 mph 63% 0.00 in 1083 W/m2
11:34 69.3 °F 57.5 °F 29.89 in NW 2.0 mph 7.0 mph 66% 0.00 in 345 W/m2
11:40 68.8 °F 55.2 °F 29.89 in SW 2.0 mph 2.0 mph 62% 0.00 in 1049 W/m2
11:46 69.4 °F 54.4 °F 29.89 in WSW 3.0 mph 4.0 mph 59% 0.00 in 241 W/m2
11:52 69.1 °F 55.5 °F 29.89 in WSW 2.0 mph 3.0 mph 62% 0.00 in 1081 W/m2
11:58 69.3 °F 57.0 °F 29.89 in NNW 2.0 mph 3.0 mph 65% 0.00 in 290 W/m2
12:04 69.2 °F 55.2 °F 29.89 in WSW 2.0 mph 5.0 mph 61% 0.00 in 1079 W/m2
12:10 69.8 °F 55.3 °F 29.89 in WSW 2.0 mph 8.0 mph 60% 0.00 in 1192 W/m2
12:16 70.2 °F 56.1 °F 29.89 in NNW 3.0 mph 8.0 mph 61% 0.00 in 1188 W/m2
12:22 70.3 °F 54.3 °F 29.89 in NW 2.0 mph 6.0 mph 57% 0.00 in 181 W/m2
12:28 68.8 °F 54.8 °F 29.89 in NW 2.0 mph 6.0 mph 61% 0.00 in 174 W/m2
12:34 69.9 °F 54.0 °F 29.89 in SSW 2.0 mph 7.0 mph 57% 0.00 in 1164 W/m2
12:40 70.2 °F 55.7 °F 29.89 in WSW 2.0 mph 6.0 mph 60% 0.00 in 371 W/m2
12:46 70.6 °F 56.0 °F 29.89 in SSW 3.0 mph 6.0 mph 60% 0.00 in 1078 W/m2
12:52 71.6 °F 55.6 °F 29.89 in NNW 1.0 mph 2.0 mph 57% 0.00 in 283 W/m2
12:58 70.5 °F 54.5 °F 29.89 in WSW 1.0 mph 4.0 mph 57% 0.00 in 265 W/m2
13:04 71.6 °F 56.0 °F 29.89 in NW 2.0 mph 4.0 mph 58% 0.00 in 1041 W/m2
13:10 72.4 °F 55.8 °F 29.89 in West 2.0 mph 2.0 mph 56% 0.00 in 1176 W/m2
13:16 70.7 °F 55.2 °F 29.89 in WNW 2.0 mph 2.0 mph 58% 0.00 in 1125 W/m2
13:22 70.4 °F 55.8 °F 29.89 in NW 2.0 mph 5.0 mph 60% 0.00 in 251 W/m2
13:28 70.4 °F 54.0 °F 29.89 in NNW 1.0 mph 5.0 mph 56% 0.00 in 200 W/m2
13:34 69.7 °F 56.1 °F 29.88 in NW 1.0 mph 2.0 mph 62% 0.00 in 251 W/m2
13:40 69.8 °F 57.1 °F 29.88 in Calm     64% 0.00 in 258 W/m2
13:46 69.8 °F 56.2 °F 29.88 in North 1.0 mph 3.0 mph 62% 0.00 in 174 W/m2
13:52 69.9 °F 57.2 °F 29.88 in North 1.0 mph 1.0 mph 64% 0.00 in 174 W/m2
13:58 71.8 °F 56.2 °F 29.88 in NW 1.0 mph 1.0 mph 58% 0.00 in 1085 W/m2
14:04 72.2 °F 55.1 °F 29.87 in WSW 2.0 mph 4.0 mph 55% 0.00 in 1125 W/m2
14:10 71.3 °F 55.3 °F 29.88 in WSW 3.0 mph 3.0 mph 57% 0.00 in 151 W/m2
14:16 70.3 °F 53.9 °F 29.88 in NNW 1.0 mph 3.0 mph 56% 0.00 in 295 W/m2
14:22 70.9 °F 55.4 °F 29.88 in NNW 1.0 mph 3.0 mph 58% 0.00 in 295 W/m2
14:28 70.7 °F 56.1 °F 29.88 in North 2.0 mph 3.0 mph 60% 0.00 in 176 W/m2
14:34 70.3 °F 55.3 °F 29.88 in NW 1.0 mph 2.0 mph 59% 0.00 in 125 W/m2
14:40 70.2 °F 56.1 °F 29.88 in NW 1.0 mph 1.0 mph 61% 0.00 in 190 W/m2
14:46 71.8 °F 56.7 °F 29.87 in North 1.0 mph 4.0 mph 59% 0.00 in 981 W/m2
14:52 70.6 °F 55.1 °F 29.87 in NW 1.0 mph 1.0 mph 58% 0.00 in 192 W/m2
14:58 70.0 °F 55.0 °F 29.88 in NW 1.0 mph 3.0 mph 59% 0.00 in 114 W/m2
15:04 69.4 °F 55.8 °F 29.88 in NW 2.0 mph 2.0 mph 62% 0.00 in 105 W/m2
15:10 69.0 °F 55.9 °F 29.88 in NW 2.0 mph 2.0 mph 63% 0.00 in 211 W/m2
15:16 70.5 °F 58.6 °F 29.88 in North 1.0 mph 5.0 mph 66% 0.00 in 234 W/m2
15:22 71.7 °F 56.1 °F 29.88 in North 3.0 mph 4.0 mph 58% 0.00 in 891 W/m2
15:28 72.8 °F 59.0 °F 29.88 in NNW 2.0 mph 4.0 mph 62% 0.00 in 926 W/m2
15:34 73.1 °F 57.0 °F 29.88 in NW 2.0 mph 5.0 mph 57% 0.00 in 918 W/m2
15:40 72.6 °F 57.0 °F 29.88 in NW 2.0 mph 2.0 mph 58% 0.00 in 854 W/m2
15:46 72.0 °F 58.7 °F 29.88 in NW 3.0 mph 3.0 mph 63% 0.00 in 812 W/m2
15:52 72.2 °F 57.1 °F 29.88 in WNW 2.0 mph 4.0 mph 59% 0.00 in 793 W/m2
15:58 71.5 °F 57.3 °F 29.88 in NW 2.0 mph 6.0 mph 61% 0.00 in 807 W/m2
16:04 72.1 °F 57.4 °F 29.88 in NNW 2.0 mph 3.0 mph 60% 0.00 in 824 W/m2
16:10 72.4 °F 56.3 °F 29.88 in NW 2.0 mph 2.0 mph 57% 0.00 in 758 W/m2
16:16 71.7 °F 56.1 °F 29.88 in NW 2.0 mph 8.0 mph 58% 0.00 in 459 W/m2
16:22 72.0 °F 56.4 °F 29.88 in NNW 3.0 mph 3.0 mph 58% 0.00 in 613 W/m2
16:28 71.7 °F 57.1 °F 29.88 in NW 2.0 mph 6.0 mph 60% 0.00 in 264 W/m2
16:34 71.2 °F 55.7 °F 29.88 in NW 2.0 mph 2.0 mph 58% 0.00 in 383 W/m2
16:40 70.5 °F 54.5 °F 29.89 in NW 2.0 mph 3.0 mph 57% 0.00 in 69 W/m2
16:46 70.4 °F 55.8 °F 29.89 in NW 3.0 mph 6.0 mph 60% 0.00 in 62 W/m2
16:52 70.6 °F 55.1 °F 29.89 in West 3.0 mph 6.0 mph 58% 0.00 in 56 W/m2
16:58 70.6 °F 56.0 °F 29.89 in NNW 2.0 mph 6.0 mph 60% 0.00 in 74 W/m2
17:04 70.5 °F 55.5 °F 29.89 in NW 2.0 mph 5.0 mph 59% 0.00 in 79 W/m2
17:10 70.4 °F 56.3 °F 29.89 in North 3.0 mph 5.0 mph 61% 0.00 in 51 W/m2
17:16 70.0 °F 54.5 °F 29.89 in NNW 4.0 mph 5.0 mph 58% 0.00 in 49 W/m2
17:22 70.0 °F 55.5 °F 29.88 in NNW 4.0 mph 4.0 mph 60% 0.00 in 44 W/m2
17:28 69.9 °F 55.4 °F 29.88 in SW 3.0 mph 5.0 mph 60% 0.00 in 51 W/m2
17:34 69.7 °F 52.8 °F 29.88 in NNW 3.0 mph 5.0 mph 55% 0.00 in 44 W/m2
17:40 69.7 °F 54.3 °F 29.88 in NW 3.0 mph 3.0 mph 58% 0.00 in 42 W/m2
17:46 69.8 °F 52.4 °F 29.87 in WSW 2.0 mph 5.0 mph 54% 0.00 in 40 W/m2
17:52 70.0 °F 53.1 °F 29.87 in SSW 2.0 mph 2.0 mph 55% 0.00 in 40 W/m2
17:58 70.1 °F 52.2 °F 29.88 in WNW 2.0 mph 3.0 mph 53% 0.00 in 40 W/m2
18:04 70.0 °F 50.5 °F 29.87 in WNW 2.0 mph 2.0 mph 50% 0.00 in 40 W/m2
18:10 70.0 °F 50.5 °F 29.87 in WNW 2.0 mph 2.0 mph 50% 0.00 in 40 W/m2
18:16 69.9 °F 49.9 °F 29.88 in NW 2.0 mph 3.0 mph 49% 0.00 in 42 W/m2
18:22 69.7 °F 50.2 °F 29.88 in NW 1.0 mph 2.0 mph 50% 0.00 in 42 W/m2
18:28 69.8 °F 50.9 °F 29.88 in NNW 1.0 mph 2.0 mph 51% 0.00 in 46 W/m2
18:34 69.8 °F 50.3 °F 29.88 in NW 1.0 mph 3.0 mph 50% 0.00 in 46 W/m2
18:40 69.6 °F 47.9 °F 29.88 in NW 2.0 mph 4.0 mph 46% 0.00 in 40 W/m2
18:46 69.4 °F 48.9 °F 29.89 in West 1.0 mph 4.0 mph 48% 0.00 in 37 W/m2
18:52 69.3 °F 48.8 °F 29.89 in NW 2.0 mph 3.0 mph 48% 0.00 in 35 W/m2
18:58 69.1 °F 49.1 °F 29.89 in NW 1.0 mph 3.0 mph 49% 0.00 in 33 W/m2
19:04 69.0 °F 50.1 °F 29.89 in West 1.0 mph 2.0 mph 51% 0.00 in 32 W/m2
19:10 68.7 °F 49.8 °F 29.89 in NW 1.0 mph 1.0 mph 51% 0.00 in 32 W/m2
19:16 68.4 °F 50.1 °F 29.89 in NW 2.0 mph 2.0 mph 52% 0.00 in 30 W/m2
19:22 68.1 °F 49.8 °F 29.89 in NW 2.0 mph 2.0 mph 52% 0.00 in 28 W/m2
19:28 67.9 °F 50.6 °F 29.90 in West 2.0 mph 2.0 mph 54% 0.00 in 26 W/m2
19:34 67.8 °F 51.0 °F 29.90 in NW 1.0 mph 1.0 mph 55% 0.00 in 28 W/m2
19:40 67.6 °F 51.3 °F 29.90 in NW 1.0 mph 1.0 mph 56% 0.00 in 25 W/m2
19:46 67.3 °F 51.1 °F 29.89 in NW 1.0 mph 2.0 mph 56% 0.00 in 33 W/m2
19:52 67.1 °F 51.8 °F 29.89 in North 1.0 mph 1.0 mph 58% 0.00 in 26 W/m2
19:58 66.7 °F 51.5 °F 29.90 in Calm   1.0 mph 58% 0.00 in 21 W/m2
20:04 66.4 °F 51.2 °F 29.90 in Calm   2.0 mph 58% 0.00 in 19 W/m2
20:10 66.3 °F 52.0 °F 29.90 in Calm     60% 0.00 in 18 W/m2
20:16 66.0 °F 52.2 °F 29.90 in Calm     61% 0.00 in 14 W/m2
20:22 65.6 °F 52.2 °F 29.90 in Calm     62% 0.00 in 12 W/m2
20:28 65.3 °F 51.9 °F 29.90 in Calm     62% 0.00 in 11 W/m2
20:34 64.9 °F 52.8 °F 29.90 in Calm     65% 0.00 in 9 W/m2
20:40 64.3 °F 52.7 °F 29.90 in Calm     66% 0.00 in 7 W/m2
20:46 63.6 °F 53.2 °F 29.90 in Calm     69% 0.00 in 5 W/m2
20:52 63.0 °F 54.2 °F 29.90 in Calm     73% 0.00 in 0 W/m2
20:58 62.3 °F 54.3 °F 29.90 in Calm     75% 0.00 in 0 W/m2
21:04 61.5 °F 54.2 °F 29.90 in Calm     77% 0.00 in 0 W/m2
21:10 60.8 °F 53.2 °F 29.90 in Calm     76% 0.00 in 0 W/m2
21:16 60.4 °F 53.2 °F 29.90 in Calm     77% 0.00 in 0 W/m2
21:22 60.1 °F 52.9 °F 29.91 in Calm     77% 0.00 in 0 W/m2
21:28 59.8 °F 52.6 °F 29.91 in Calm     77% 0.00 in 0 W/m2
21:34 59.5 °F 52.6 °F 29.92 in Calm     78% 0.00 in 0 W/m2
21:40 59.2 °F 53.0 °F 29.92 in Calm     80% 0.00 in 0 W/m2
21:46 59.0 °F 53.5 °F 29.92 in Calm     82% 0.00 in 0 W/m2
21:52 58.8 °F 53.3 °F 29.92 in Calm     82% 0.00 in 0 W/m2
21:58 58.4 °F 53.3 °F 29.93 in Calm     83% 0.00 in 0 W/m2
22:04 58.2 °F 52.7 °F 29.93 in Calm     82% 0.00 in 0 W/m2
22:10 58.0 °F 53.2 °F 29.93 in Calm     84% 0.00 in 0 W/m2
22:16 57.9 °F 53.1 °F 29.93 in Calm     84% 0.00 in 0 W/m2
22:22 57.6 °F 52.5 °F 29.93 in Calm     83% 0.00 in 0 W/m2
22:28 57.6 °F 52.8 °F 29.93 in Calm     84% 0.00 in 0 W/m2
22:34 57.3 °F 52.5 °F 29.93 in Calm     84% 0.00 in 0 W/m2
22:40 57.2 °F 52.4 °F 29.93 in Calm     84% 0.00 in 0 W/m2
22:46 57.0 °F 52.2 °F 29.93 in Calm     84% 0.00 in 0 W/m2
22:52 56.9 °F 52.1 °F 29.93 in Calm     84% 0.00 in 0 W/m2
22:58 56.8 °F 52.0 °F 29.93 in Calm     84% 0.00 in 0 W/m2
23:04 56.8 °F 52.3 °F 29.93 in Calm     85% 0.00 in 0 W/m2
23:10 56.7 °F 52.2 °F 29.93 in Calm     85% 0.00 in 0 W/m2
23:16 56.5 °F 52.0 °F 29.93 in Calm     85% 0.00 in 0 W/m2
23:22 56.2 °F 51.7 °F 29.92 in Calm     85% 0.00 in 0 W/m2
23:28 56.1 °F 52.0 °F 29.92 in Calm     86% 0.00 in 0 W/m2
23:34 56.1 °F 52.3 °F 29.92 in Calm     87% 0.00 in 0 W/m2
23:40 56.0 °F 52.2 °F 29.93 in Calm     87% 0.00 in 0 W/m2
23:46 55.9 °F 52.1 °F 29.92 in Calm     87% 0.00 in 0 W/m2
23:52 55.7 °F 51.9 °F 29.92 in Calm     87% 0.00 in 0 W/m2
23:58 55.8 °F 52.0 °F 29.92 in Calm     87% 0.00 in 0 W/m2
Country Meadow, Clay, NY, USA
Compliments of Weather Underground - 2 mb